Time;durP1;ratioP1;P1;durP2;ratioP2;P2;SDS_P1;SDS_P2;PMS_P1;PMS_P2;Temp;Humidity;BMP_temperature;BMP_pressure;BME280_temperature;BME280_humidity;BME280_pressure;Samples;Min_cycle;Max_cycle;Signal;HPM_P1;HPM_P2
2020/12/10 00:01:32;;;;;;;;;;;21.70;55.40;;;;;;5033179;28;1433;-65
2020/12/10 00:03:58;;;;;;;;;;;21.70;55.40;;;;;;5032662;28;1902;-65
2020/12/10 00:06:23;;;;;;;;;;;21.70;55.50;;;;;;5033003;28;1314;-64
2020/12/10 00:08:48;;;;;;;;;;;21.70;55.50;;;;;;5031560;28;1289;-65
2020/12/10 00:11:14;;;;;;;;;;;21.60;55.50;;;;;;5033019;28;1244;-65
2020/12/10 00:13:39;;;;;;;;;;;21.60;55.50;;;;;;5032537;28;1296;-65
2020/12/10 00:16:05;;;;;;;;;;;21.60;55.50;;;;;;5031548;28;1325;-65
2020/12/10 00:18:30;;;;;;;;;;;21.60;55.60;;;;;;5032722;28;1303;-65
2020/12/10 00:20:56;;;;;;;;;;;21.60;55.60;;;;;;5031501;28;1295;-65
2020/12/10 00:23:21;;;;;;;;;;;21.60;55.60;;;;;;5032506;28;1910;-65
2020/12/10 00:25:47;;;;;;;;;;;21.50;55.60;;;;;;5032535;28;1335;-65
2020/12/10 00:28:12;;;;;;;;;;;21.60;55.70;;;;;;5031239;28;1330;-65
2020/12/10 00:30:37;;;;;;;;;;;21.60;55.70;;;;;;5032627;28;1273;-64
2020/12/10 00:33:03;;;;;;;;;;;21.50;55.60;;;;;;5031724;28;1299;-65
2020/12/10 00:35:28;;;;;;;;;;;21.50;55.70;;;;;;5031140;28;1376;-65
2020/12/10 00:37:54;;;;;;;;;;;21.50;55.70;;;;;;5030919;28;1305;-65
2020/12/10 00:40:19;;;;;;;;;;;21.50;55.70;;;;;;5032523;28;1283;-64
2020/12/10 00:42:45;;;;;;;;;;;21.50;56.40;;;;;;5031027;28;1918;-65
2020/12/10 00:45:10;;;;;;;;;;;21.50;55.80;;;;;;5032498;28;1299;-65
2020/12/10 00:47:36;;;;;;;;;;;21.50;55.80;;;;;;5031890;28;1250;-65
2020/12/10 00:50:01;;;;;;;;;;;21.50;55.80;;;;;;5032409;28;1365;-65
2020/12/10 00:52:27;;;;;;;;;;;21.50;55.80;;;;;;5032095;28;1271;-65
2020/12/10 00:54:52;;;;;;;;;;;21.40;55.80;;;;;;5031954;28;1332;-65
2020/12/10 00:57:18;;;;;;;;;;;21.40;55.80;;;;;;5032023;28;1224;-65
2020/12/10 00:59:46;;;;;;;;;;;21.40;55.90;;;;;;5014501;28;1356;-65
2020/12/10 01:02:12;;;;;;;;;;;21.40;55.90;;;;;;5031840;28;1275;-65
2020/12/10 01:04:37;;;;;;;;;;;21.40;55.90;;;;;;5030328;28;1890;-64
2020/12/10 01:07:03;;;;;;;;;;;21.40;55.90;;;;;;5031556;28;1247;-65
2020/12/10 01:09:28;;;;;;;;;;;21.40;55.90;;;;;;5031681;28;1241;-65
2020/12/10 01:11:53;;;;;;;;;;;21.40;55.90;;;;;;5031648;28;1253;-65
2020/12/10 01:14:19;;;;;;;;;;;21.40;56.00;;;;;;5031427;28;1307;-65
2020/12/10 01:16:48;;;;;;;;;;;21.40;56.00;;;;;;5030241;28;1341;-65
2020/12/10 01:19:13;;;;;;;;;;;21.40;56.00;;;;;;5030343;28;1240;-64
2020/12/10 01:21:39;;;;;;;;;;;21.40;56.10;;;;;;5030311;28;1271;-64
2020/12/10 01:24:04;;;;;;;;;;;21.40;56.10;;;;;;5029946;28;1965;-65
2020/12/10 01:26:33;;;;;;;;;;;21.30;56.00;;;;;;5031469;28;1347;-65
2020/12/10 01:28:59;;;;;;;;;;;21.30;56.00;;;;;;5030332;28;1186;-64
2020/12/10 01:31:25;;;;;;;;;;;21.30;56.00;;;;;;5031336;28;1108;-65
2020/12/10 01:33:50;;;;;;;;;;;21.30;56.60;;;;;;5031107;28;1319;-65
2020/12/10 01:36:25;;;;;;;;;;;21.30;56.10;;;;;;5030048;28;1369;-65
2020/12/10 01:38:51;;;;;;;;;;;21.30;56.10;;;;;;5030280;28;1288;-64
2020/12/10 01:41:17;;;;;;;;;;;21.30;56.10;;;;;;5029974;28;1382;-65
2020/12/10 01:43:42;;;;;;;;;;;21.30;56.10;;;;;;5031613;28;1942;-66
2020/12/10 01:46:08;;;;;;;;;;;21.30;56.10;;;;;;5034052;28;1490;-65
2020/12/10 01:48:34;;;;;;;;;;;21.30;56.20;;;;;;5036337;28;1305;-65
2020/12/10 01:50:59;;;;;;;;;;;21.30;56.20;;;;;;5032593;28;1379;-65
2020/12/10 01:53:25;;;;;;;;;;;21.30;56.20;;;;;;5012669;28;1404;-65
2020/12/10 01:55:50;;;;;;;;;;;21.30;56.20;;;;;;5035745;28;1372;-65
2020/12/10 01:58:16;;;;;;;;;;;21.30;56.20;;;;;;5036244;28;1189;-65
2020/12/10 02:00:41;;;;;;;;;;;21.30;56.20;;;;;;5036127;28;1352;-65
2020/12/10 02:03:07;;;;;;;;;;;21.30;56.30;;;;;;5034699;28;1957;-65
2020/12/10 02:05:33;;;;;;;;;;;21.20;56.20;;;;;;5035638;28;1345;-65
2020/12/10 02:07:59;;;;;;;;;;;21.20;56.30;;;;;;5028861;28;1569;-65
2020/12/10 02:10:24;;;;;;;;;;;21.20;56.30;;;;;;5027631;28;1235;-66
2020/12/10 02:12:49;;;;;;;;;;;21.20;56.30;;;;;;5030329;28;1248;-64
2020/12/10 02:15:17;;;;;;;;;;;21.20;56.30;;;;;;5029327;28;1298;-65
2020/12/10 02:17:42;;;;;;;;;;;21.20;56.30;;;;;;5029779;28;1362;-66
2020/12/10 02:20:07;;;;;;;;;;;21.20;56.30;;;;;;5030746;28;1249;-65
2020/12/10 02:22:33;;;;;;;;;;;21.20;56.30;;;;;;5030629;28;1953;-66
2020/12/10 02:24:58;;;;;;;;;;;21.20;56.30;;;;;;5027897;28;1293;-65
2020/12/10 02:27:24;;;;;;;;;;;21.20;56.30;;;;;;5026714;28;1402;-65
2020/12/10 02:29:49;;;;;;;;;;;21.20;56.20;;;;;;5028536;28;1272;-66
2020/12/10 02:32:15;;;;;;;;;;;21.20;56.20;;;;;;5027208;28;1220;-66
2020/12/10 02:34:40;;;;;;;;;;;21.20;56.10;;;;;;5026749;28;1292;-65
2020/12/10 02:37:06;;;;;;;;;;;21.30;56.70;;;;;;5025754;28;1287;-65
2020/12/10 02:39:31;;;;;;;;;;;21.30;56.20;;;;;;5027517;28;1291;-65
2020/12/10 02:41:57;;;;;;;;;;;21.30;56.10;;;;;;5027969;28;1209;-65
2020/12/10 02:44:22;;;;;;;;;;;21.30;56.10;;;;;;5028236;28;1963;-65
2020/12/10 02:46:47;;;;;;;;;;;21.30;56.10;;;;;;5030373;28;1217;-65
2020/12/10 02:49:13;;;;;;;;;;;21.30;56.10;;;;;;5030094;28;1229;-66
2020/12/10 02:51:42;;;;;;;;;;;21.30;56.10;;;;;;5028470;28;1220;-66
2020/12/10 02:54:07;;;;;;;;;;;21.30;56.10;;;;;;5025772;28;1375;-65
2020/12/10 02:56:33;;;;;;;;;;;21.30;56.10;;;;;;5024974;28;1231;-66
2020/12/10 02:58:58;;;;;;;;;;;21.30;56.10;;;;;;5026508;28;1267;-65
2020/12/10 03:01:24;;;;;;;;;;;21.30;56.10;;;;;;5026606;28;1304;-65
2020/12/10 03:03:49;;;;;;;;;;;21.20;56.10;;;;;;5025453;28;1956;-65
2020/12/10 03:06:15;;;;;;;;;;;21.20;56.10;;;;;;5026588;28;1228;-65
2020/12/10 03:08:40;;;;;;;;;;;21.20;56.10;;;;;;5027997;28;1312;-65
2020/12/10 03:11:06;;;;;;;;;;;21.20;56.10;;;;;;5024326;28;1291;-66
2020/12/10 03:13:31;;;;;;;;;;;21.20;56.70;;;;;;5026419;28;1306;-65
2020/12/10 03:15:57;;;;;;;;;;;21.20;56.20;;;;;;5025748;28;1185;-65
2020/12/10 03:18:24;;;;;;;;;;;21.20;56.20;;;;;;5027075;28;1236;-64
2020/12/10 03:20:50;;;;;;;;;;;21.20;56.20;;;;;;5033918;28;1297;-66
2020/12/10 03:23:15;;;;;;;;;;;21.20;56.30;;;;;;5033640;28;1960;-65
2020/12/10 03:25:41;;;;;;;;;;;21.20;56.20;;;;;;5033750;28;1319;-66
2020/12/10 03:28:06;;;;;;;;;;;21.20;56.30;;;;;;5033332;28;1366;-65
2020/12/10 03:30:32;;;;;;;;;;;21.20;56.30;;;;;;5001855;28;1473;-64
2020/12/10 03:33:00;;;;;;;;;;;21.10;56.30;;;;;;5029132;28;1354;-64
2020/12/10 03:35:25;;;;;;;;;;;21.10;56.30;;;;;;5022698;28;1264;-65
2020/12/10 03:37:51;;;;;;;;;;;21.10;56.30;;;;;;5032953;28;1310;-64
2020/12/10 03:40:16;;;;;;;;;;;21.10;56.30;;;;;;5033511;28;1378;-65
2020/12/10 03:42:42;;;;;;;;;;;21.10;56.30;;;;;;5033748;28;1914;-65
2020/12/10 03:45:07;;;;;;;;;;;21.10;56.30;;;;;;5034598;28;1372;-64
2020/12/10 03:47:33;;;;;;;;;;;21.10;56.40;;;;;;5032979;28;1368;-65
2020/12/10 03:49:58;;;;;;;;;;;21.10;56.40;;;;;;5034599;28;1319;-65
2020/12/10 03:52:24;;;;;;;;;;;21.10;56.40;;;;;;5034418;28;1379;-65
2020/12/10 03:54:49;;;;;;;;;;;21.10;56.40;;;;;;5034064;28;1333;-64
2020/12/10 03:57:15;;;;;;;;;;;21.10;56.40;;;;;;5034006;28;1301;-64
2020/12/10 03:59:40;;;;;;;;;;;21.10;56.50;;;;;;5034105;28;1322;-65
2020/12/10 04:02:05;;;;;;;;;;;21.10;56.50;;;;;;5034129;28;1394;-64
2020/12/10 04:04:31;;;;;;;;;;;21.10;56.50;;;;;;5032637;28;1906;-65
2020/12/10 04:06:56;;;;;;;;;;;21.10;56.50;;;;;;5033279;28;1292;-66
2020/12/10 04:09:22;;;;;;;;;;;21.10;56.50;;;;;;5012993;28;1298;-65
2020/12/10 04:11:47;;;;;;;;;;;21.10;56.50;;;;;;5028243;28;1272;-65
2020/12/10 04:14:13;;;;;;;;;;;21.10;56.50;;;;;;5032563;28;1299;-66
2020/12/10 04:16:38;;;;;;;;;;;21.10;56.40;;;;;;5013797;28;1319;-65
2020/12/10 04:19:04;;;;;;;;;;;21.20;56.40;;;;;;5033863;28;1340;-66
2020/12/10 04:21:29;;;;;;;;;;;21.20;56.20;;;;;;5033718;28;1318;-66
2020/12/10 04:23:55;;;;;;;;;;;21.30;56.10;;;;;;5033431;28;1906;-65
2020/12/10 04:26:20;;;;;;;;;;;21.40;56.00;;;;;;5033378;28;1363;-65
2020/12/10 04:28:46;;;;;;;;;;;21.50;56.30;;;;;;5033618;28;1286;-65
2020/12/10 04:31:11;;;;;;;;;;;21.60;55.50;;;;;;5033726;28;1343;-65
2020/12/10 04:33:37;;;;;;;;;;;21.70;55.30;;;;;;5032191;28;1288;-65
2020/12/10 04:36:03;;;;;;;;;;;21.80;55.10;;;;;;5032241;28;1342;-65
2020/12/10 04:38:29;;;;;;;;;;;21.90;55.50;;;;;;5033480;28;1339;-65
2020/12/10 04:40:54;;;;;;;;;;;22.00;54.70;;;;;;5032114;28;1553;-65
2020/12/10 04:43:26;;;;;;;;;;;22.10;54.60;;;;;;5033195;28;1973;-66
2020/12/10 04:45:58;;;;;;;;;;;22.20;54.40;;;;;;5033255;28;1395;-66
2020/12/10 04:48:27;;;;;;;;;;;22.20;54.20;;;;;;5033315;28;1307;-65
2020/12/10 04:50:57;;;;;;;;;;;22.30;54.10;;;;;;5032132;28;1426;-65
2020/12/10 04:53:23;;;;;;;;;;;22.30;53.90;;;;;;5031770;28;1328;-65
2020/12/10 04:55:48;;;;;;;;;;;22.40;53.80;;;;;;5032877;28;1347;-65
2020/12/10 04:58:14;;;;;;;;;;;22.40;53.70;;;;;;5033352;28;1347;-65
2020/12/10 05:00:39;;;;;;;;;;;22.50;53.70;;;;;;5033336;28;1390;-66
2020/12/10 05:03:05;;;;;;;;;;;22.50;53.50;;;;;;5033076;28;1883;-66
2020/12/10 05:05:31;;;;;;;;;;;22.50;53.50;;;;;;5031538;28;1436;-66
2020/12/10 05:07:57;;;;;;;;;;;22.60;53.40;;;;;;5031735;28;1307;-66
2020/12/10 05:10:22;;;;;;;;;;;22.60;53.30;;;;;;5032983;28;1182;-66
2020/12/10 05:12:48;;;;;;;;;;;22.60;53.30;;;;;;5032034;28;1337;-65
2020/12/10 05:15:17;;;;;;;;;;;22.60;53.20;;;;;;5031404;28;1326;-66
2020/12/10 05:17:42;;;;;;;;;;;22.70;53.20;;;;;;5032904;28;1342;-65
2020/12/10 05:20:08;;;;;;;;;;;22.70;53.20;;;;;;5032917;28;1464;-65
2020/12/10 05:22:33;;;;;;;;;;;22.70;53.10;;;;;;5032706;28;1941;-65
2020/12/10 05:25:03;;;;;;;;;;;22.70;53.10;;;;;;5031308;28;1415;-65
2020/12/10 05:27:29;;;;;;;;;;;22.70;53.10;;;;;;5031842;28;1343;-65
2020/12/10 05:29:54;;;;;;;;;;;22.70;53.00;;;;;;5031915;28;1245;-65
2020/12/10 05:32:29;;;;;;;;;;;22.80;53.10;;;;;;5031960;28;1369;-64
2020/12/10 05:34:55;;;;;;;;;;;22.80;53.00;;;;;;5032117;28;1343;-65
2020/12/10 05:37:25;;;;;;;;;;;22.70;52.90;;;;;;5031480;28;1357;-64
2020/12/10 05:39:55;;;;;;;;;;;22.80;53.00;;;;;;5032117;28;1349;-66
2020/12/10 05:42:21;;;;;;;;;;;22.80;53.00;;;;;;5031651;28;1328;-66
2020/12/10 05:44:46;;;;;;;;;;;22.80;53.00;;;;;;5031166;28;1906;-66
2020/12/10 05:47:12;;;;;;;;;;;22.80;53.00;;;;;;5031453;28;1307;-65
2020/12/10 05:49:37;;;;;;;;;;;22.80;53.10;;;;;;5032521;28;1259;-67
2020/12/10 05:52:03;;;;;;;;;;;22.80;53.10;;;;;;5031624;28;1340;-66
2020/12/10 05:54:29;;;;;;;;;;;22.70;53.10;;;;;;5032043;28;1326;-66
2020/12/10 05:56:58;;;;;;;;;;;22.70;53.10;;;;;;5031225;28;1377;-66
2020/12/10 05:59:24;;;;;;;;;;;22.70;53.20;;;;;;5032624;28;1308;-67
2020/12/10 06:01:49;;;;;;;;;;;22.70;53.20;;;;;;5031407;28;1376;-67
2020/12/10 06:04:15;;;;;;;;;;;22.70;53.20;;;;;;5030853;28;1971;-66
2020/12/10 06:06:40;;;;;;;;;;;22.70;53.30;;;;;;5031268;28;1325;-66
2020/12/10 06:09:06;;;;;;;;;;;22.70;53.40;;;;;;5032433;28;1331;-67
2020/12/10 06:11:31;;;;;;;;;;;22.60;53.30;;;;;;5032735;28;1328;-67
2020/12/10 06:14:04;;;;;;;;;;;22.60;53.40;;;;;;5030951;28;1365;-66
2020/12/10 06:16:29;;;;;;;;;;;22.60;53.40;;;;;;5031219;28;1328;-66
2020/12/10 06:19:02;;;;;;;;;;;22.60;53.50;;;;;;5031256;28;1292;-66
2020/12/10 06:21:31;;;;;;;;;;;22.60;53.50;;;;;;5032561;28;1354;-66
2020/12/10 06:23:56;;;;;;;;;;;22.60;53.60;;;;;;5032060;28;1961;-67
2020/12/10 06:26:24;;;;;;;;;;;22.50;53.60;;;;;;5032328;28;1390;-67
2020/12/10 06:29:11;;;;;;;;;;;22.50;53.70;;;;;;5032404;28;1201;-66
2020/12/10 06:31:47;;;;;;;;;;;22.50;53.70;;;;;;5033498;28;1398;-66
2020/12/10 06:34:12;;;;;;;;;;;22.50;53.70;;;;;;5034386;28;1348;-67
2020/12/10 06:36:38;;;;;;;;;;;22.50;53.80;;;;;;5034326;28;1509;-67
2020/12/10 06:39:03;;;;;;;;;;;22.40;53.80;;;;;;5034916;28;1311;-67
2020/12/10 06:41:28;;;;;;;;;;;22.40;53.90;;;;;;5034489;28;1322;-66
2020/12/10 06:43:54;;;;;;;;;;;22.40;53.90;;;;;;5035386;28;1910;-67
2020/12/10 06:46:19;;;;;;;;;;;22.40;54.00;;;;;;5034589;28;1339;-67
2020/12/10 06:48:45;;;;;;;;;;;22.40;54.00;;;;;;5035644;28;1249;-66
2020/12/10 06:51:18;;;;;;;;;;;22.30;54.00;;;;;;5034455;28;1329;-66
2020/12/10 06:53:58;;;;;;;;;;;22.30;54.10;;;;;;5035560;28;1286;-66
2020/12/10 06:56:24;;;;;;;;;;;22.30;54.10;;;;;;5035449;28;1383;-66
2020/12/10 06:58:51;;;;;;;;;;;22.30;54.10;;;;;;5034168;28;1363;-66
2020/12/10 07:01:29;;;;;;;;;;;22.30;54.20;;;;;;5035552;28;1306;-64
2020/12/10 07:04:17;;;;;;;;;;;22.30;54.20;;;;;;5033734;28;1903;-66
2020/12/10 07:06:43;;;;;;;;;;;22.20;54.20;;;;;;5033730;28;1277;-66
2020/12/10 07:09:09;;;;;;;;;;;22.20;54.30;;;;;;5033953;28;1335;-66
2020/12/10 07:11:35;;;;;;;;;;;22.20;54.30;;;;;;5033971;28;1322;-66
2020/12/10 07:14:01;;;;;;;;;;;22.20;54.40;;;;;;5034839;28;1328;-66
2020/12/10 07:16:28;;;;;;;;;;;22.20;54.40;;;;;;5032968;28;1310;-63
2020/12/10 07:18:53;;;;;;;;;;;22.20;54.40;;;;;;5019175;28;1792;-65
2020/12/10 07:21:19;;;;;;;;;;;22.20;54.40;;;;;;5028307;28;1050;-66
2020/12/10 07:23:44;;;;;;;;;;;22.10;54.40;;;;;;5033143;28;1963;-67
2020/12/10 07:26:10;;;;;;;;;;;22.10;54.50;;;;;;5034568;28;1330;-67
2020/12/10 07:28:35;;;;;;;;;;;22.10;54.50;;;;;;5028542;28;1398;-63
2020/12/10 07:31:01;;;;;;;;;;;22.10;54.50;;;;;;5022047;28;1521;-65
2020/12/10 07:33:26;;;;;;;;;;;22.10;54.60;;;;;;5032135;28;1322;-64
2020/12/10 07:35:52;;;;;;;;;;;22.10;54.60;;;;;;5033335;28;1233;-63
2020/12/10 07:38:17;;;;;;;;;;;22.10;54.60;;;;;;5034629;28;1302;-65
2020/12/10 07:40:43;;;;;;;;;;;22.00;54.60;;;;;;5033915;28;1281;-64
2020/12/10 07:43:09;;;;;;;;;;;22.00;54.60;;;;;;5031496;28;1910;-64
2020/12/10 07:45:34;;;;;;;;;;;22.00;54.70;;;;;;5031907;28;1326;-64
2020/12/10 07:48:01;;;;;;;;;;;22.00;54.70;;;;;;5032862;28;1367;-64
2020/12/10 07:50:27;;;;;;;;;;;22.00;54.80;;;;;;5033053;28;1334;-65
2020/12/10 07:52:53;;;;;;;;;;;21.90;54.70;;;;;;5031783;28;1238;-65
2020/12/10 07:55:22;;;;;;;;;;;21.90;54.80;;;;;;5033406;28;1372;-66
2020/12/10 07:57:50;;;;;;;;;;;21.90;54.90;;;;;;5034567;28;1335;-67
2020/12/10 08:00:19;;;;;;;;;;;21.90;54.90;;;;;;5032579;28;1478;-66
2020/12/10 08:02:57;;;;;;;;;;;21.90;54.90;;;;;;5030965;28;1902;-65
2020/12/10 08:05:22;;;;;;;;;;;21.90;55.00;;;;;;5032018;28;1420;-65
2020/12/10 08:07:48;;;;;;;;;;;21.80;55.00;;;;;;5032502;28;1319;-67
2020/12/10 08:10:27;;;;;;;;;;;21.80;55.00;;;;;;5031218;28;1302;-66
2020/12/10 08:13:11;;;;;;;;;;;21.80;55.00;;;;;;5031182;28;1291;-66
2020/12/10 08:15:37;;;;;;;;;;;21.80;55.00;;;;;;5033112;28;1322;-67
2020/12/10 08:18:06;;;;;;;;;;;21.80;55.00;;;;;;5033839;28;1303;-67
2020/12/10 08:20:35;;;;;;;;;;;21.80;55.00;;;;;;5032574;28;1363;-67
2020/12/10 08:23:00;;;;;;;;;;;21.90;55.00;;;;;;5032487;28;1965;-67
2020/12/10 08:25:26;;;;;;;;;;;21.90;55.00;;;;;;5012598;28;1336;-66
2020/12/10 08:27:51;;;;;;;;;;;21.90;54.90;;;;;;5026267;28;1167;-66
2020/12/10 08:30:17;;;;;;;;;;;22.00;54.80;;;;;;5033695;28;1258;-66
2020/12/10 08:32:49;;;;;;;;;;;22.00;54.70;;;;;;5032732;28;1316;-66
2020/12/10 08:35:14;;;;;;;;;;;22.10;54.70;;;;;;5033285;28;1364;-68
2020/12/10 08:37:40;;;;;;;;;;;22.10;54.50;;;;;;5033397;28;1342;-67
2020/12/10 08:40:06;;;;;;;;;;;22.20;54.50;;;;;;5032675;28;1344;-66
2020/12/10 08:42:31;;;;;;;;;;;22.20;54.40;;;;;;5032378;28;1297;-65
2020/12/10 08:44:57;;;;;;;;;;;22.20;54.30;;;;;;5033143;28;1968;-66
2020/12/10 08:47:26;;;;;;;;;;;22.30;54.20;;;;;;5032154;28;1350;-65
2020/12/10 08:50:23;;;;;;;;;;;22.30;54.20;;;;;;5033225;28;1731;-65
2020/12/10 08:52:58;;;;;;;;;;;22.30;54.10;;;;;;5032037;28;1333;-65
2020/12/10 08:55:24;;;;;;;;;;;22.30;54.10;;;;;;5032900;28;1288;-65
2020/12/10 08:57:49;;;;;;;;;;;22.30;54.10;;;;;;5033278;28;1386;-63
2020/12/10 09:00:15;;;;;;;;;;;22.30;54.10;;;;;;5033295;28;1322;-65
2020/12/10 09:02:44;;;;;;;;;;;22.30;54.00;;;;;;5032012;28;1382;-65
2020/12/10 09:05:12;;;;;;;;;;;22.30;54.00;;;;;;5039265;28;1395;-65
2020/12/10 09:07:37;;;;;;;;;;;22.30;54.00;;;;;;5034076;28;1384;-64
2020/12/10 09:10:06;;;;;;;;;;;22.30;54.10;;;;;;5012179;28;1382;-66
2020/12/10 09:12:31;;;;;;;;;;;22.30;54.10;;;;;;5032373;28;1327;-66
2020/12/10 09:14:57;;;;;;;;;;;22.30;54.10;;;;;;5031783;28;1351;-65
2020/12/10 09:17:22;;;;;;;;;;;22.30;54.10;;;;;;5031777;28;1377;-65
2020/12/10 09:19:48;;;;;;;;;;;22.30;54.10;;;;;;5012266;28;1298;-64
2020/12/10 09:22:13;;;;;;;;;;;22.20;54.10;;;;;;5031652;28;1284;-66
2020/12/10 09:24:39;;;;;;;;;;;22.20;54.10;;;;;;5031584;28;1981;-65
2020/12/10 09:27:07;;;;;;;;;;;22.20;54.20;;;;;;5031816;28;1283;-65
2020/12/10 09:29:36;;;;;;;;;;;22.20;54.30;;;;;;5015702;28;1289;-65
2020/12/10 09:32:03;;;;;;;;;;;22.20;54.20;;;;;;4999406;28;1245;-65
2020/12/10 09:34:28;;;;;;;;;;;22.20;54.20;;;;;;5023909;28;1348;-63
2020/12/10 09:36:54;;;;;;;;;;;22.10;54.30;;;;;;5032550;28;1287;-65
2020/12/10 09:39:19;;;;;;;;;;;22.20;54.30;;;;;;5029916;28;1321;-65
2020/12/10 09:41:45;;;;;;;;;;;22.10;54.30;;;;;;5031480;28;1290;-65
2020/12/10 09:44:10;;;;;;;;;;;22.10;54.40;;;;;;5032396;28;1983;-65
2020/12/10 09:46:36;;;;;;;;;;;22.10;54.40;;;;;;5031221;28;1396;-65
2020/12/10 09:49:01;;;;;;;;;;;22.00;54.40;;;;;;5031281;28;1304;-64
2020/12/10 09:51:33;;;;;;;;;;;22.10;54.50;;;;;;5031280;28;1379;-65
2020/12/10 09:54:51;;;;;;;;;;;22.10;54.50;;;;;;5031473;28;1319;-65
2020/12/10 09:59:29;;;;;;;;;;;22.00;54.50;;;;;;5032605;28;1268;-65
2020/12/10 10:01:54;;;;;;;;;;;22.00;54.50;;;;;;5031342;28;1260;-66
2020/12/10 10:04:20;;;;;;;;;;;22.10;54.60;;;;;;5030988;28;1906;-67
2020/12/10 10:06:48;;;;;;;;;;;22.10;54.60;;;;;;5033807;28;1342;-66
2020/12/10 10:09:17;;;;;;;;;;;22.10;54.50;;;;;;5028581;28;1526;-66
2020/12/10 10:11:45;;;;;;;;;;;22.20;54.50;;;;;;5028069;28;1382;-66
2020/12/10 10:14:11;;;;;;;;;;;22.20;54.40;;;;;;5035757;28;1564;-67
2020/12/10 10:16:36;;;;;;;;;;;22.20;54.20;;;;;;5026329;28;1347;-65
2020/12/10 10:19:02;;;;;;;;;;;22.30;54.20;;;;;;5032020;28;1378;-66
2020/12/10 10:21:28;;;;;;;;;;;22.30;54.00;;;;;;5035994;28;1394;-65
2020/12/10 10:23:54;;;;;;;;;;;22.40;54.00;;;;;;5035563;28;1906;-64
2020/12/10 10:26:19;;;;;;;;;;;22.40;53.80;;;;;;5034133;28;1269;-65
2020/12/10 10:28:47;;;;;;;;;;;22.40;53.70;;;;;;5035912;28;1316;-67
2020/12/10 10:31:13;;;;;;;;;;;22.50;53.70;;;;;;5035003;28;1330;-66
2020/12/10 10:33:38;;;;;;;;;;;22.50;53.60;;;;;;5035614;28;1467;-67
2020/12/10 10:36:04;;;;;;;;;;;22.50;53.60;;;;;;5034725;28;1376;-66
2020/12/10 10:38:29;;;;;;;;;;;22.50;53.50;;;;;;5034794;28;1414;-66
2020/12/10 10:40:58;;;;;;;;;;;22.50;53.50;;;;;;5036174;28;1295;-66
2020/12/10 10:43:23;;;;;;;;;;;22.50;53.40;;;;;;5034414;28;1906;-67
2020/12/10 10:45:49;;;;;;;;;;;22.50;53.50;;;;;;5035307;28;1419;-66
2020/12/10 10:48:14;;;;;;;;;;;22.50;53.40;;;;;;5035896;28;1314;-66
2020/12/10 10:50:39;;;;;;;;;;;22.60;53.50;;;;;;5035188;28;1304;-66
2020/12/10 10:53:05;;;;;;;;;;;22.50;53.50;;;;;;5035645;28;1385;-66
2020/12/10 10:55:30;;;;;;;;;;;22.50;53.50;;;;;;5035374;28;1367;-66
2020/12/10 10:57:56;;;;;;;;;;;22.50;53.50;;;;;;5033779;28;1437;-64
2020/12/10 11:00:21;;;;;;;;;;;22.50;53.50;;;;;;5034545;28;1328;-66
2020/12/10 11:02:47;;;;;;;;;;;22.50;53.50;;;;;;5033930;28;1898;-66
2020/12/10 11:05:12;;;;;;;;;;;22.50;53.60;;;;;;5034013;28;1416;-66
2020/12/10 11:07:40;;;;;;;;;;;22.50;53.60;;;;;;5033714;28;1433;-66
2020/12/10 11:10:06;;;;;;;;;;;22.40;53.60;;;;;;5034052;28;1323;-66
2020/12/10 11:12:31;;;;;;;;;;;22.40;53.70;;;;;;5033792;28;1339;-66
2020/12/10 11:14:57;;;;;;;;;;;22.40;53.90;;;;;;5030381;28;1850;-65
2020/12/10 11:17:22;;;;;;;;;;;22.40;53.80;;;;;;5032195;28;1305;-66
2020/12/10 11:19:49;;;;;;;;;;;22.40;53.80;;;;;;5032701;28;1439;-67
2020/12/10 11:22:14;;;;;;;;;;;22.40;53.80;;;;;;5021014;28;1298;-65
2020/12/10 11:24:40;;;;;;;;;;;22.30;53.80;;;;;;5033521;28;1993;-65
2020/12/10 11:27:05;;;;;;;;;;;22.30;53.90;;;;;;5012619;28;1364;-66
2020/12/10 11:29:33;;;;;;;;;;;22.30;54.00;;;;;;5027305;28;1295;-65
2020/12/10 11:31:59;;;;;;;;;;;22.30;54.00;;;;;;5032317;28;1263;-65
2020/12/10 11:34:24;;;;;;;;;;;22.30;54.00;;;;;;5032308;28;1228;-67
2020/12/10 11:36:50;;;;;;;;;;;22.30;54.00;;;;;;5033371;28;1084;-67
2020/12/10 11:39:15;;;;;;;;;;;22.30;54.10;;;;;;5013355;28;1349;-62
2020/12/10 11:41:41;;;;;;;;;;;22.30;54.10;;;;;;5023029;28;1329;-62
2020/12/10 11:44:06;;;;;;;;;;;22.30;54.10;;;;;;5026402;28;1922;-62
2020/12/10 11:46:32;;;;;;;;;;;22.30;54.10;;;;;;5033412;28;1284;-60
2020/12/10 11:48:57;;;;;;;;;;;22.30;54.10;;;;;;5031455;28;1207;-63
2020/12/10 11:51:23;;;;;;;;;;;22.30;54.10;;;;;;5033443;28;1204;-65
2020/12/10 11:53:48;;;;;;;;;;;22.30;54.00;;;;;;5030633;28;2012;-62
2020/12/10 11:56:14;;;;;;;;;;;22.30;54.00;;;;;;5020026;28;1295;-63
2020/12/10 11:58:40;;;;;;;;;;;22.40;54.00;;;;;;5032923;28;1117;-62
2020/12/10 12:01:05;;;;;;;;;;;22.40;53.90;;;;;;5011941;28;1301;-63
2020/12/10 12:03:31;;;;;;;;;;;22.40;53.80;;;;;;5023697;28;1910;-60
2020/12/10 12:05:56;;;;;;;;;;;22.50;53.80;;;;;;5032764;28;1303;-62
2020/12/10 12:08:25;;;;;;;;;;;22.50;53.70;;;;;;5033117;28;1056;-62
2020/12/10 12:10:51;;;;;;;;;;;22.50;53.60;;;;;;5032720;28;1255;-62
2020/12/10 12:13:16;;;;;;;;;;;22.50;53.50;;;;;;5031662;28;1961;-62
2020/12/10 12:15:42;;;;;;;;;;;22.50;53.50;;;;;;5032642;28;1288;-62
2020/12/10 12:18:07;;;;;;;;;;;22.50;53.50;;;;;;5032779;28;1197;-62
2020/12/10 12:20:33;;;;;;;;;;;22.50;53.50;;;;;;5032950;28;1295;-62
2020/12/10 12:22:58;;;;;;;;;;;22.60;53.50;;;;;;5032746;28;1403;-62
2020/12/10 12:25:24;;;;;;;;;;;22.50;53.50;;;;;;5031097;28;1316;-64
2020/12/10 12:27:49;;;;;;;;;;;22.50;53.50;;;;;;5030914;28;1307;-61
2020/12/10 12:30:15;;;;;;;;;;;22.50;53.50;;;;;;5031055;28;1114;-62
2020/12/10 12:32:40;;;;;;;;;;;22.50;53.50;;;;;;5032559;28;1250;-62
2020/12/10 12:35:06;;;;;;;;;;;22.50;53.50;;;;;;5032108;28;1902;-62
2020/12/10 12:37:31;;;;;;;;;;;22.50;53.60;;;;;;5031221;28;1269;-62
2020/12/10 12:39:56;;;;;;;;;;;22.50;53.60;;;;;;5032223;28;1351;-63
2020/12/10 12:42:22;;;;;;;;;;;22.50;53.60;;;;;;5031291;28;1355;-65
2020/12/10 12:44:47;;;;;;;;;;;22.50;53.70;;;;;;5031905;28;1280;-60
2020/12/10 12:47:13;;;;;;;;;;;22.50;53.70;;;;;;5026256;28;2043;-62
2020/12/10 12:49:41;;;;;;;;;;;22.40;53.70;;;;;;5029945;28;1093;-64
2020/12/10 12:52:07;;;;;;;;;;;22.40;53.70;;;;;;5010504;28;1273;-63
2020/12/10 12:54:33;;;;;;;;;;;22.40;53.80;;;;;;5030372;28;1910;-62
2020/12/10 12:56:58;;;;;;;;;;;22.40;53.80;;;;;;5028882;28;2035;-61
2020/12/10 12:59:24;;;;;;;;;;;22.40;53.80;;;;;;5030647;28;1144;-62
2020/12/10 13:01:49;;;;;;;;;;;22.40;53.90;;;;;;5032452;28;774;-62
2020/12/10 13:04:18;;;;;;;;;;;22.40;53.90;;;;;;5031749;28;1335;-62
2020/12/10 13:06:47;;;;;;;;;;;22.30;53.90;;;;;;5030691;28;1345;-63
2020/12/10 13:09:16;;;;;;;;;;;22.30;54.00;;;;;;5030641;28;1303;-63
2020/12/10 13:11:43;;;;;;;;;;;22.30;54.00;;;;;;5032169;28;1311;-63
2020/12/10 13:14:09;;;;;;;;;;;22.30;54.10;;;;;;5030113;28;1955;-64
2020/12/10 13:16:38;;;;;;;;;;;22.30;54.10;;;;;;5031966;28;1072;-63
2020/12/10 13:19:03;;;;;;;;;;;22.30;54.10;;;;;;5030649;28;1267;-63
2020/12/10 13:21:29;;;;;;;;;;;22.30;54.10;;;;;;5031798;28;1327;-64
2020/12/10 13:23:54;;;;;;;;;;;22.20;54.10;;;;;;5031560;28;1274;-63
2020/12/10 13:26:29;;;;;;;;;;;22.20;54.20;;;;;;5031965;28;1307;-63
2020/12/10 13:28:55;;;;;;;;;;;22.20;54.20;;;;;;5030546;28;1186;-63
2020/12/10 13:31:24;;;;;;;;;;;22.20;54.20;;;;;;5021995;28;1152;-62
2020/12/10 13:33:49;;;;;;;;;;;22.20;54.30;;;;;;5031671;28;1968;-64
2020/12/10 13:36:14;;;;;;;;;;;22.20;54.30;;;;;;5030123;28;1338;-63
2020/12/10 13:38:40;;;;;;;;;;;22.10;54.40;;;;;;5031476;28;1307;-63
2020/12/10 13:41:08;;;;;;;;;;;22.10;54.20;;;;;;5035392;28;1243;-64
2020/12/10 13:43:33;;;;;;;;;;;22.10;54.30;;;;;;5035346;28;1292;-63
2020/12/10 13:45:59;;;;;;;;;;;22.10;54.40;;;;;;5035650;28;1256;-63
2020/12/10 13:48:25;;;;;;;;;;;22.10;54.50;;;;;;5036456;28;1260;-63
2020/12/10 13:50:50;;;;;;;;;;;22.10;54.50;;;;;;5035829;28;1311;-62
2020/12/10 13:53:16;;;;;;;;;;;22.00;54.50;;;;;;5034639;28;1957;-63
2020/12/10 13:55:42;;;;;;;;;;;22.00;54.50;;;;;;5034247;28;1343;-61
2020/12/10 13:58:07;;;;;;;;;;;22.00;54.60;;;;;;5035415;28;1284;-63
2020/12/10 14:00:33;;;;;;;;;;;22.00;54.60;;;;;;5035774;28;1291;-63
2020/12/10 14:02:58;;;;;;;;;;;21.90;54.60;;;;;;5035456;28;1068;-64
2020/12/10 14:05:24;;;;;;;;;;;21.90;54.70;;;;;;5034904;28;1335;-64
2020/12/10 14:07:49;;;;;;;;;;;21.90;54.70;;;;;;5034169;28;1265;-63
2020/12/10 14:10:15;;;;;;;;;;;21.90;54.70;;;;;;5035379;28;1092;-63
2020/12/10 14:12:42;;;;;;;;;;;21.90;54.70;;;;;;5033772;28;1309;-64
2020/12/10 14:15:07;;;;;;;;;;;21.90;54.80;;;;;;5035047;28;1902;-63
2020/12/10 14:17:32;;;;;;;;;;;21.90;54.90;;;;;;5033870;28;1266;-63
2020/12/10 14:19:58;;;;;;;;;;;21.90;54.90;;;;;;5035019;28;1184;-65
2020/12/10 14:22:23;;;;;;;;;;;21.80;54.90;;;;;;5033925;28;1056;-63
2020/12/10 14:24:49;;;;;;;;;;;21.80;54.90;;;;;;5035033;28;1361;-64
2020/12/10 14:27:15;;;;;;;;;;;21.80;54.90;;;;;;5034839;28;1429;-64
2020/12/10 14:29:40;;;;;;;;;;;21.80;55.00;;;;;;5020387;28;1198;-63